tititudorancea.com
Station Historical Data
Daily Summary for August 19, 2018 Units:  Metric    English   Both
« Previous Day
Next Day »
Daily Weekly Monthly Yearly Custom
  High: Low: Average:
Temperature: -17.8 °C 4.9 °C 6.2 °C
Dew Point: -17.8 °C 2.1 °C 3.3 °C
Humidity: Humidity % 67 % 82 %
Wind Speed: 0 km/h 7.4 km/h 26.1 km/h
Wind Gust: 0 km/h - -
Wind:- - SW
Pressure: 0 hPa 1015.8 hPa -
Precipitation: 2.01 mm    
Historical Graphs
 
 
Ararat weather Find more about Weather in Ararat, AU


 



 


Tabular Data for August 19, 2018
Time Temperature Dew Point Pressure Wind Wind Speed Wind Gust Humidity Rainfall Rate (Hourly)
-17.8 °C -17.8 °C 0 hPa Calm     Humidity % 0 mm
00:04 6.3 °C 3.6 °C 1015.8 hPa SW 18.5 km/h 12.1 km/h 83 % 0.41 mm
00:09 6.4 °C 3.8 °C 1015.8 hPa WSW 38.9 km/h 22.4 km/h 83 % 0.41 mm
00:14 6.5 °C 3.7 °C 1016.1 hPa SW 31.5 km/h 19.3 km/h 82 % 0.61 mm
00:19 6.3 °C 3.7 °C 1016.1 hPa SW 35.2 km/h 27.2 km/h 83 % 0.61 mm
00:24 6.3 °C 3.6 °C 1016.1 hPa SW 31.5 km/h 18.3 km/h 83 % 0.61 mm
00:29 6.2 °C 3.6 °C 1016.1 hPa SW 35.2 km/h 22.7 km/h 83 % 0.61 mm
00:34 6.2 °C 3.6 °C 1016.1 hPa WSW 25.9 km/h 22.9 km/h 83 % 0.61 mm
00:39 6.1 °C 3.4 °C 1016.5 hPa WSW 25.9 km/h 15.3 km/h 83 % 0.61 mm
00:44 6.1 °C 3.4 °C 1016.5 hPa WSW 27.8 km/h 16.9 km/h 83 % 0.61 mm
00:49 6.2 °C 3.5 °C 1016.5 hPa SW 31.5 km/h 17.9 km/h 83 % 0.41 mm
00:54 6.3 °C 3.6 °C 1016.5 hPa WSW 20.4 km/h 20 km/h 83 % 0.41 mm
00:59 6.3 °C 3.6 °C 1016.5 hPa WSW 18.5 km/h 14.6 km/h 83 % 0.41 mm
01:04 6.2 °C 3.6 °C 1016.5 hPa WSW 24.1 km/h 19.5 km/h 83 % 0.2 mm
01:09 6.1 °C 3.4 °C 1016.5 hPa WSW 20.4 km/h 17.9 km/h 83 % 0.2 mm
01:14 6.1 °C 3.4 °C 1016.5 hPa WSW 31.5 km/h 21.7 km/h 83 % 0 mm
01:19 6.1 °C 3.4 °C 1016.5 hPa WSW 22.2 km/h 17.2 km/h 83 % 0 mm
01:24 6.2 °C 3.5 °C 1016.5 hPa SW 24.1 km/h 15 km/h 83 % 0 mm
01:29 6.2 °C 3.5 °C 1016.5 hPa SW 19.3 km/h 11.3 km/h 83 % 0 mm
01:34 6.2 °C 3.5 °C 1016.8 hPa WSW 24.1 km/h 15.4 km/h 83 % 0 mm
01:39 6.2 °C 3.5 °C 1016.8 hPa WSW 22.2 km/h 17.2 km/h 83 % 0 mm
01:44 6.2 °C 3.5 °C 1016.8 hPa WSW 32.2 km/h 24 km/h 83 % 0 mm
01:49 6.2 °C 3.6 °C 1016.8 hPa North 27.4 km/h 20.9 km/h 83 % 0 mm
01:54 6.3 °C 3.8 °C 1016.8 hPa WSW 31.5 km/h 20 km/h 84 % 0 mm
01:59 6.3 °C 3.6 °C 1016.8 hPa WSW 25.9 km/h 18.7 km/h 83 % 0 mm
02:04 6.2 °C 3.4 °C 1016.8 hPa WSW 29.6 km/h 19.2 km/h 82 % 0 mm
02:09 6.2 °C 3.3 °C 1016.8 hPa SW 33.3 km/h 18.7 km/h 82 % 0 mm
02:14 6.1 °C 3.2 °C 1016.8 hPa WSW 27.8 km/h 17.7 km/h 82 % 0 mm
02:19 6.1 °C 3.2 °C 1017.2 hPa SW 40.7 km/h 27.2 km/h 82 % 0 mm
02:24 6.1 °C 3.1 °C 1017.2 hPa SW 31.5 km/h 21.7 km/h 81 % 0 mm
02:29 6.2 °C 2.8 °C 1017.2 hPa WSW 40.7 km/h 18.7 km/h 79 % 0 mm
02:34 6.2 °C 2.8 °C 1017.5 hPa SW 33.3 km/h 29 km/h 79 % 0 mm
02:39 6.1 °C 2.5 °C 1017.5 hPa SSW 31.5 km/h 17.7 km/h 78 % 0 mm
02:44 6 °C 2.4 °C 1017.2 hPa WSW 31.5 km/h 15.1 km/h 78 % 0 mm
02:49 5.8 °C 2.4 °C 1017.2 hPa WSW 24.1 km/h 13.5 km/h 79 % 0 mm
02:54 5.7 °C 2.6 °C 1017.2 hPa WSW 24.1 km/h 16.9 km/h 80 % 0 mm
02:59 5.8 °C 2.4 °C 1017.2 hPa SW 25.9 km/h 13.2 km/h 79 % 0 mm
03:04 5.8 °C 2.6 °C 1017.2 hPa North 35.2 km/h 18.5 km/h 80 % 0 mm
03:09 5.8 °C 2.7 °C 1017.2 hPa SW 37 km/h 24.5 km/h 80 % 0 mm
03:14 5.9 °C 2.9 °C 1017.2 hPa SW 25.9 km/h 19.5 km/h 81 % 0 mm
03:19 6 °C 3.2 °C 1017.2 hPa SW 25.9 km/h 18.2 km/h 82 % 0 mm
03:24 6 °C 3.2 °C 1017.2 hPa WSW 17.7 km/h 10.6 km/h 82 % 0 mm
03:29 5.9 °C 3.1 °C 1017.2 hPa SSW 25.9 km/h 20.9 km/h 82 % 0 mm
03:34 5.9 °C 3.2 °C 1017.5 hPa SSW 20.4 km/h 16.1 km/h 83 % 0 mm
03:39 5.8 °C 3.2 °C 1017.5 hPa SW 18.5 km/h 15.9 km/h 83 % 0 mm
03:44 5.7 °C 3.1 °C 1017.5 hPa SW 17.7 km/h 12.1 km/h 83 % 0 mm
03:49 5.7 °C 3.2 °C 1017.5 hPa North 24.1 km/h 21.4 km/h 84 % 0 mm
03:54 5.7 °C 3.1 °C 1017.5 hPa SSW 19.3 km/h 22.5 km/h 83 % 0 mm
03:59 5.7 °C 3.1 °C 1017.5 hPa SW 19.3 km/h 18 km/h 83 % 0 mm
04:04 5.7 °C 2.9 °C 1017.5 hPa SW 20.4 km/h 11.3 km/h 82 % 0 mm
04:09 5.8 °C 2.9 °C 1017.5 hPa SW 24.1 km/h 14.3 km/h 82 % 0 mm
04:14 5.8 °C 2.8 °C 1017.8 hPa SW 35.2 km/h 12.9 km/h 81 % 0 mm
04:19 5.9 °C 2.9 °C 1017.8 hPa SW 38.9 km/h 27.5 km/h 81 % 0 mm
04:24 5.7 °C 2.7 °C 1017.8 hPa WSW 33.3 km/h 17.4 km/h 81 % 0 mm
04:29 5.6 °C 2.7 °C 1017.8 hPa SSW 37 km/h 22.7 km/h 82 % 0 mm
04:34 5.6 °C 2.7 °C 1018.2 hPa North 40.7 km/h 30.7 km/h 82 % 0 mm
04:39 5.5 °C 2.8 °C 1018.2 hPa North 35.2 km/h 24.8 km/h 83 % 0 mm
04:44 5.3 °C 2.8 °C 1018.2 hPa North 27.8 km/h 17.2 km/h 84 % 0 mm
04:49 5.2 °C 2.9 °C 1018.2 hPa SW 20.4 km/h 9.7 km/h 85 % 0.2 mm
04:54 5.1 °C 2.8 °C 1018.2 hPa SW 18.5 km/h 16.6 km/h 85 % 0.2 mm
04:59 5.1 °C 2.7 °C 1018.2 hPa WSW 24.1 km/h 19 km/h 85 % 0.2 mm
05:04 5.1 °C 2.8 °C 1018.2 hPa SW 33.8 km/h 23.7 km/h 85 % 0.2 mm
05:09 5.2 °C 2.7 °C 1018.2 hPa SW 25.9 km/h 19.3 km/h 84 % 0.2 mm
05:14 5.2 °C 2.7 °C 1018.2 hPa WSW 38.9 km/h 22 km/h 84 % 0.2 mm
05:19 5.3 °C 2.8 °C 1018.2 hPa North 31.5 km/h 14.8 km/h 84 % 0.2 mm
05:24 5.3 °C 2.6 °C 1018.2 hPa SW 38.9 km/h 18.8 km/h 83 % 0.2 mm
05:29 5.2 °C 2.6 °C 1018.2 hPa SW 25.9 km/h 21.7 km/h 83 % 0.2 mm
05:34 5.2 °C 2.5 °C 1018.5 hPa SW 27.8 km/h 18 km/h 83 % 0.2 mm
05:39 5.2 °C 2.5 °C 1018.5 hPa SW 24.1 km/h 15.4 km/h 83 % 0.2 mm
05:44 5.2 °C 2.7 °C 1018.5 hPa SW 33.3 km/h 23 km/h 84 % 0.2 mm
05:49 5.3 °C 2.6 °C 1018.8 hPa SW 31.5 km/h 25.6 km/h 83 % 0 mm
05:54 5.3 °C 2.6 °C 1018.8 hPa WSW 33.3 km/h 25.6 km/h 83 % 0 mm
05:59 5.2 °C 2.6 °C 1018.8 hPa WSW 25.9 km/h 26.7 km/h 83 % 0 mm
06:04 5.1 °C 2.6 °C 1018.8 hPa WSW 38.9 km/h 17.5 km/h 84 % 0 mm
06:09 5 °C 2.7 °C 1018.8 hPa WSW 25.9 km/h 14.3 km/h 85 % 0 mm
06:14 4.9 °C 2.6 °C 1018.8 hPa WSW 35.4 km/h 20.6 km/h 85 % 0 mm
06:19 5 °C 2.7 °C 1019.2 hPa SW 50 km/h 30.3 km/h 85 % 0 mm
06:24 5.1 °C 2.7 °C 1019.2 hPa SW 33.3 km/h 23.3 km/h 85 % 0 mm
06:29 5.1 °C 2.6 °C 1019.2 hPa SW 37 km/h 20.9 km/h 84 % 0 mm
06:34 5.1 °C 2.7 °C 1019.2 hPa WSW 35.2 km/h 21.6 km/h 85 % 0 mm
06:39 5 °C 2.5 °C 1019.5 hPa WSW 30.6 km/h 26.1 km/h 84 % 0 mm
06:44 5 °C 2.7 °C 1019.5 hPa SW 48.1 km/h 24.1 km/h 85 % 0 mm
06:49 5 °C 2.7 °C 1019.5 hPa SW 31.5 km/h 24.3 km/h 85 % 0 mm
06:54 5 °C 2.7 °C 1019.5 hPa SW 32.2 km/h 25.4 km/h 85 % 0 mm
06:59 5 °C 2.8 °C 1019.5 hPa SW 38.9 km/h 20.9 km/h 86 % 0 mm
07:04 4.9 °C 2.8 °C 1019.9 hPa SW 27.4 km/h 18 km/h 86 % 0 mm
07:09 4.9 °C 2.9 °C 1019.9 hPa SW 31.5 km/h 16.4 km/h 87 % 0 mm
07:14 4.9 °C 2.9 °C 1019.9 hPa SW 29.6 km/h 16.7 km/h 87 % 0 mm
07:19 5 °C 3 °C 1020.2 hPa SW 38.9 km/h 18.2 km/h 87 % 0 mm
07:24 4.9 °C 2.9 °C 1020.2 hPa SW 27.8 km/h 23.3 km/h 87 % 0 mm
07:29 4.9 °C 2.9 °C 1020.2 hPa SW 29.6 km/h 24.1 km/h 87 % 0 mm
07:34 4.9 °C 2.9 °C 1020.2 hPa SW 37 km/h 23.2 km/h 87 % 0 mm
07:39 4.9 °C 2.9 °C 1020.5 hPa SW 31.5 km/h 22.4 km/h 87 % 0 mm
07:44 4.9 °C 3.8 °C 1020.5 hPa SW 29.6 km/h 22.2 km/h 92 % 0 mm
07:49 4.9 °C 2.9 °C 1020.5 hPa SW 31.5 km/h 22.2 km/h 87 % 0 mm
07:54 5.1 °C 3.1 °C 1020.9 hPa SW 38.9 km/h 25.6 km/h 87 % 0 mm
07:59 5 °C 3 °C 1021.2 hPa SW 40.7 km/h 26.6 km/h 87 % 0 mm
08:04 5.1 °C 3.2 °C 1021.2 hPa SSW 42.6 km/h 28.8 km/h 88 % 0 mm
08:09 5.1 °C 3.1 °C 1021.2 hPa SW 33.3 km/h 26.1 km/h 87 % 0 mm
08:14 5.1 °C 3.1 °C 1021.2 hPa SSW 38.9 km/h 26.2 km/h 87 % 0 mm
08:19 5.2 °C 3.2 °C 1021.2 hPa SW 27.8 km/h 20.4 km/h 87 % 0 mm
08:24 5.2 °C 3.2 °C 1021.2 hPa SW 31.5 km/h 17.2 km/h 87 % 0 mm
08:29 5.2 °C 3.2 °C 1021.2 hPa SSW 31.5 km/h 24.5 km/h 87 % 0 mm
08:34 5.3 °C 3.4 °C 1021.6 hPa SW 32.2 km/h 21.1 km/h 88 % 0 mm
08:39 5.4 °C 3.6 °C 1021.6 hPa SW 30.6 km/h 21.2 km/h 88 % 0 mm
08:44 5.6 °C 3.6 °C 1021.6 hPa SW 40.7 km/h 40.7 km/h 87 % 0 mm
08:49 5.8 °C 3.8 °C 1021.9 hPa SW 25.9 km/h 14 km/h 87 % 0 mm
08:54 5.9 °C 3.7 °C 1021.9 hPa SW 27.8 km/h 24.1 km/h 86 % 0 mm
08:59 5.9 °C 3.7 °C 1021.9 hPa SW 27.8 km/h 20.4 km/h 86 % 0 mm
09:04 5.7 °C 3.5 °C 1022.2 hPa SSW 25.9 km/h 20.1 km/h 86 % 0 mm
09:09 5.6 °C 3.4 °C 1022.2 hPa North 29 km/h 17.5 km/h 86 % 0 mm
09:14 5.8 °C 3.6 °C 1022.2 hPa SW 29.6 km/h 13.4 km/h 86 % 0 mm
09:19 5.8 °C 3.4 °C 1022.2 hPa SSW 24.1 km/h 15 km/h 85 % 0 mm
09:24 5.9 °C 3.8 °C 1022.6 hPa North 19.3 km/h 15.3 km/h 86 % 0 mm
09:29 6.2 °C 4 °C 1022.6 hPa South 29.6 km/h 14.6 km/h 86 % 0 mm
09:34 6.1 °C 3.6 °C 1022.6 hPa South 29.6 km/h 22.4 km/h 84 % 0 mm
09:39 5.6 °C 2.9 °C 1022.9 hPa SSW 33.3 km/h 23.3 km/h 83 % 0 mm
09:44 5.7 °C 3.2 °C 1022.9 hPa South 20.9 km/h 19.6 km/h 84 % 0 mm
09:49 5.5 °C 2.7 °C 1022.9 hPa South 35.2 km/h 26.2 km/h 82 % 0 mm
10:09 6.3 °C 3.8 °C 1023.2 hPa SW 35.2 km/h 16.6 km/h 84 % 0 mm
10:14 6.4 °C 3.4 °C 1023.2 hPa North 37 km/h 25.4 km/h 81 % 0 mm
10:19 6.6 °C 3.4 °C 1023.6 hPa SW 31.5 km/h 23.5 km/h 80 % 0 mm
10:24 6.9 °C 3.1 °C 1023.6 hPa SSW 46.3 km/h 21.4 km/h 77 % 0 mm
10:29 7.3 °C 2.9 °C 1023.6 hPa SSW 35.2 km/h 20.3 km/h 74 % 0 mm
10:34 7.1 °C 3 °C 1023.6 hPa SSW 42.6 km/h 29.9 km/h 75 % 0 mm
10:39 6.8 °C 3.3 °C 1023.9 hPa North 25.9 km/h 13.2 km/h 78 % 0 mm
10:44 6.3 °C 3.3 °C 1023.9 hPa South 27.8 km/h 17.4 km/h 81 % 0 mm
10:49 6.3 °C 3.4 °C 1023.9 hPa North 31.5 km/h 12.7 km/h 82 % 0 mm
10:54 6.7 °C 4 °C 1023.6 hPa South 22.2 km/h 16.4 km/h 83 % 0 mm
10:59 7.2 °C 4.1 °C 1023.6 hPa North 25.9 km/h 14.8 km/h 81 % 0 mm
11:04 7.7 °C 4.3 °C 1023.6 hPa SW 18.5 km/h 13.4 km/h 79 % 0 mm
11:09 8 °C 4 °C 1023.9 hPa SW 37 km/h 21.7 km/h 76 % 0 mm
11:14 8.1 °C 3.6 °C 1023.9 hPa SSW 35.2 km/h 27.7 km/h 73 % 0 mm
11:19 8.2 °C 3.7 °C 1024.3 hPa SSW 33.3 km/h 19.2 km/h 73 % 0 mm
11:24 7.8 °C 3.7 °C 1024.3 hPa WSW 35.2 km/h 29.8 km/h 75 % 0 mm
11:29 7.3 °C 3.5 °C 1024.3 hPa SSW 38.6 km/h 26.2 km/h 77 % 0 mm
11:34 7.4 °C 3.4 °C 1024.3 hPa SSW 37 km/h 21.6 km/h 76 % 0 mm
11:39 7.8 °C 3.8 °C 1024.3 hPa SW 31.5 km/h 23.8 km/h 76 % 0 mm
11:44 8.1 °C 4.1 °C 1024.3 hPa SW 24.1 km/h 16.7 km/h 76 % 0 mm
11:49 8.3 °C 4.1 °C 1024.3 hPa WSW 31.5 km/h 26.1 km/h 75 % 0 mm
11:54 8.2 °C 3.7 °C 1024.3 hPa SSW 44.4 km/h 32.7 km/h 73 % 0 mm
11:59 8.4 °C 4.1 °C 1024.3 hPa SSW 33.3 km/h 22 km/h 74 % 0 mm
12:04 8.6 °C 4 °C 1024.3 hPa WSW 33.3 km/h 25.6 km/h 73 % 0 mm
12:09 8.4 °C 3.9 °C 1024.3 hPa SSW 38.9 km/h 23.3 km/h 73 % 0 mm
12:14 8.7 °C 4.3 °C 1024.3 hPa SW 29.6 km/h 22.7 km/h 74 % 0 mm
12:19 8.2 °C 3.8 °C 1024.9 hPa SSE 25.7 km/h 23.3 km/h 74 % 0 mm
12:24 6.8 °C 3.6 °C 1024.6 hPa SW 24.1 km/h 21.6 km/h 80 % 0.2 mm
12:29 6.5 °C 3.8 °C 1024.6 hPa SSW 22.2 km/h 15.9 km/h 83 % 0.2 mm
12:34 6.8 °C 4.3 °C 1024.3 hPa South 20.4 km/h 13.8 km/h 84 % 0.2 mm
12:39 7.4 °C 4.8 °C 1024.3 hPa SSW 37 km/h 18.8 km/h 84 % 0.2 mm
12:44 7.9 °C 4.1 °C 1024.3 hPa SSW 51.8 km/h 28.8 km/h 77 % 0.2 mm
12:49 8.2 °C 3.8 °C 1024.3 hPa SSW 27.8 km/h 30.1 km/h 74 % 0.2 mm
12:54 8.5 °C 3.6 °C 1024.3 hPa SSW 42.6 km/h 23.5 km/h 71 % 0.2 mm
12:59 8.7 °C 3.7 °C 1024.3 hPa South 24.1 km/h 17.1 km/h 71 % 0.2 mm
13:04 8.7 °C 2.9 °C 1024.3 hPa SSW 50 km/h 31.1 km/h 67 % 0.41 mm
13:09 8.7 °C 3.2 °C 1024.3 hPa South 42.6 km/h 33 km/h 68 % 0.41 mm
13:14 7.7 °C 2.9 °C 1024.6 hPa SSW 59.2 km/h 25.3 km/h 72 % 0.41 mm
13:19 7 °C 2.9 °C 1024.6 hPa SSW 33.3 km/h 21.1 km/h 75 % 0.41 mm
13:24 7.4 °C 3.3 °C 1024.3 hPa SSW 29.6 km/h 14.5 km/h 75 % 0.2 mm
13:29 7.9 °C 3.6 °C 1024.3 hPa SSW 35.2 km/h 20 km/h 74 % 0.2 mm
13:34 8.4 °C 4 °C 1024.3 hPa SW 22.2 km/h 17.5 km/h 74 % 0.2 mm
13:39 8.8 °C 4 °C 1024.3 hPa SSW 24.1 km/h 18.5 km/h 72 % 0.2 mm
13:44 8.8 °C 4 °C 1024.3 hPa SSW 33.3 km/h 16.7 km/h 72 % 0.2 mm
13:49 8.8 °C 4 °C 1024.3 hPa SSW 29 km/h 18.7 km/h 72 % 0.2 mm
13:54 9 °C 4.2 °C 1024.3 hPa SW 27.4 km/h 22.2 km/h 72 % 0.2 mm
13:59 8.7 °C 3.8 °C 1024.3 hPa SSW 31.5 km/h 25.3 km/h 71 % 0.2 mm
14:04 8.8 °C 3.6 °C 1024.3 hPa South 31.5 km/h 22.9 km/h 70 % 0 mm
14:09 8.9 °C 3.3 °C 1024.3 hPa SSW 48.1 km/h 21.2 km/h 68 % 0 mm
14:14 8.9 °C 3.7 °C 1024.6 hPa SSW 33.3 km/h 24.8 km/h 70 % 0 mm
14:19 8.6 °C 3.4 °C 1024.3 hPa SSW 35.2 km/h 22.7 km/h 70 % 0 mm
14:24 8.5 °C 3.6 °C 1024.6 hPa SW 31.5 km/h 13.2 km/h 71 % 0 mm
14:29 8.8 °C 3.6 °C 1024.6 hPa WSW 32.2 km/h 25.1 km/h 70 % 0 mm
14:34 8.6 °C 3.6 °C 1024.6 hPa SW 31.5 km/h 13.7 km/h 71 % 0 mm
14:39 8.7 °C 3.9 °C 1024.6 hPa SSW 25.9 km/h 18.2 km/h 72 % 0 mm
14:44 8.4 °C 4.2 °C 1024.9 hPa North 37 km/h 19.2 km/h 75 % 0 mm
14:49 6.8 °C 3.7 °C 1025.3 hPa South 37 km/h 20.8 km/h 81 % 0.2 mm
14:54 6.2 °C 3.9 °C 1025.3 hPa SSW 29.6 km/h 17.5 km/h 85 % 0.41 mm
14:59 6.1 °C 3.6 °C 1024.9 hPa SSW 31.5 km/h 16.3 km/h 84 % 0.79 mm
15:04 6.6 °C 4.1 °C 1024.9 hPa SSW 22.2 km/h 14.5 km/h 84 % 0.79 mm
15:09 7 °C 4.5 °C 1024.9 hPa SSW 20.4 km/h 15.9 km/h 84 % 0.79 mm
15:13 7.3 °C 4.8 °C 1024.9 hPa SSW 18.5 km/h 11.1 km/h 84 % 0.79 mm
15:19 7.8 °C 4.9 °C 1024.9 hPa SSW 29.6 km/h 18.7 km/h 82 % 0.79 mm
15:24 8.2 °C 4.7 °C 1024.9 hPa SSW 24.1 km/h 22 km/h 79 % 0.79 mm
15:29 8.4 °C 4.6 °C 1025.3 hPa SW 31.5 km/h 17.2 km/h 77 % 0.79 mm
15:34 8.7 °C 4.7 °C 1025.3 hPa SSW 33.3 km/h 22.9 km/h 76 % 0.79 mm
15:39 8.3 °C 4.9 °C 1025.3 hPa SSE 31.5 km/h 16.6 km/h 79 % 0.79 mm
15:44 7.9 °C 4.7 °C 1025.3 hPa SSW 27.8 km/h 17.4 km/h 80 % 0.79 mm
15:49 8.1 °C 5 °C 1025.3 hPa SSW 25.7 km/h 19.2 km/h 81 % 0.61 mm
15:54 8.3 °C 5.3 °C 1025.3 hPa South 16.7 km/h 9.3 km/h 81 % 0.41 mm
15:59 8.4 °C 5.2 °C 1025.3 hPa South 27.8 km/h 23.7 km/h 80 % 0 mm
16:04 7.9 °C 4.4 °C 1025.6 hPa North 38.6 km/h 22.2 km/h 79 % 0 mm
16:09 6.6 °C 3.9 °C 1026 hPa South 31.5 km/h 20.8 km/h 83 % 0.2 mm
16:14 6.5 °C 4.3 °C 1025.6 hPa SSW 24.1 km/h 13.2 km/h 86 % 0.2 mm
16:19 6.6 °C 4.4 °C 1025.6 hPa South 22.2 km/h 16.4 km/h 86 % 0.2 mm
16:24 6.9 °C 4.6 °C 1025.6 hPa South 20.4 km/h 13.8 km/h 85 % 0.2 mm
16:29 7.2 °C 4.9 °C 1025.6 hPa SSW 22.2 km/h 9.3 km/h 85 % 0.2 mm
16:34 7.4 °C 4.7 °C 1025.6 hPa SSW 37 km/h 17.5 km/h 83 % 0.2 mm
16:39 7.6 °C 4.9 °C 1025.6 hPa South 22.2 km/h 16.7 km/h 83 % 0.2 mm
16:44 7.7 °C 5 °C 1025.6 hPa South 20.4 km/h 10.1 km/h 83 % 0.2 mm
16:49 7.6 °C 4.5 °C 1025.6 hPa SSW 33.3 km/h 18.5 km/h 81 % 0.2 mm
16:54 7.3 °C 4.2 °C 1026 hPa South 31.5 km/h 26.2 km/h 81 % 0.2 mm
16:59 7.2 °C 4.1 °C 1026 hPa South 27.8 km/h 18.7 km/h 81 % 0.2 mm
17:04 7.1 °C 4 °C 1026 hPa SSW 31.5 km/h 13.4 km/h 81 % 0.2 mm
17:09 7 °C 3.9 °C 1026 hPa SSW 29.6 km/h 20 km/h 81 % 0 mm
17:14 7 °C 3.9 °C 1026 hPa South 16.7 km/h 14.3 km/h 81 % 0 mm
17:19 6.9 °C 3.8 °C 1026 hPa SSW 22.2 km/h 16.7 km/h 81 % 0 mm
17:24 6.8 °C 3.7 °C 1026.3 hPa SSW 18.5 km/h 9.2 km/h 81 % 0 mm
17:29 6.7 °C 3.9 °C 1026.3 hPa SSW 20.4 km/h 14.8 km/h 82 % 0 mm
17:34 6.7 °C 3.8 °C 1026.3 hPa SSW 16.7 km/h 17.4 km/h 82 % 0 mm
17:39 6.6 °C 3.8 °C 1026.3 hPa SSW 20.4 km/h 15.4 km/h 82 % 0 mm
17:44 6.6 °C 3.8 °C 1026.3 hPa SSW 20.4 km/h 15.3 km/h 82 % 0 mm
17:49 6.6 °C 3.9 °C 1026.3 hPa SSW 14.8 km/h 12.1 km/h 83 % 0 mm
17:54 6.6 °C 3.9 °C 1026.6 hPa SSW 11.1 km/h 8.4 km/h 83 % 0 mm
17:59 6.6 °C 3.9 °C 1026.6 hPa South 14.8 km/h 7.6 km/h 83 % 0 mm
18:04 6.5 °C 4 °C 1026.6 hPa SSW 16.7 km/h 9.7 km/h 84 % 0 mm
18:09 6.3 °C 3.8 °C 1026.6 hPa SSW 14.5 km/h 13.5 km/h 84 % 0 mm
18:14 6.2 °C 3.7 °C 1026.6 hPa SSW 18.5 km/h 8.7 km/h 84 % 0 mm
18:19 6.1 °C 3.6 °C 1026.6 hPa SSW 9.3 km/h 7.1 km/h 84 % 0 mm
18:24 6 °C 3.7 °C 1026.6 hPa SSW 16.7 km/h 12.6 km/h 85 % 0 mm
18:29 5.9 °C 3.6 °C 1026.6 hPa SSW 14.8 km/h 10 km/h 85 % 0 mm
18:34 5.8 °C 3.4 °C 1026.6 hPa North 11.1 km/h 9.2 km/h 85 % 0 mm
18:39 5.7 °C 3.6 °C 1026.6 hPa North 11.1 km/h 8.2 km/h 86 % 0 mm
18:44 5.6 °C 3.4 °C 1026.6 hPa SSW 9.7 km/h 6.4 km/h 86 % 0 mm
18:49 5.5 °C 3.5 °C 1026.6 hPa SSW 9.7 km/h 6 km/h 87 % 0 mm
18:54 5.5 °C 3.5 °C 1026.6 hPa SSW 7.4 km/h 6.8 km/h 87 % 0 mm
18:59 5.4 °C 3.6 °C 1027 hPa SSW 9.3 km/h 5.6 km/h 88 % 0 mm
19:04 5.4 °C 3.6 °C 1027 hPa North 9.3 km/h 6 km/h 88 % 0 mm
19:09 5.4 °C 3.6 °C 1027 hPa SSW 7.4 km/h 5 km/h 88 % 0 mm
19:14 5.5 °C 3.8 °C 1027 hPa North 9.3 km/h 6.4 km/h 89 % 0 mm
19:19 5.6 °C 3.9 °C 1027.3 hPa North 13 km/h 8.2 km/h 89 % 0 mm
19:24 5.6 °C 3.9 °C 1027.3 hPa SSW 13 km/h 10.8 km/h 89 % 0 mm
19:29 5.7 °C 4 °C 1027.3 hPa North 13 km/h 6.8 km/h 89 % 0 mm
19:34 5.7 °C 4.1 °C 1027.3 hPa SSW 11.3 km/h 10 km/h 89 % 0 mm
19:39 5.7 °C 4.1 °C 1027.3 hPa North 14.8 km/h 10.3 km/h 89 % 0 mm
19:44 5.7 °C 3.9 °C 1027.3 hPa SSW 9.3 km/h 4.8 km/h 88 % 0 mm
19:49 5.8 °C 3.9 °C 1027.3 hPa North 14.8 km/h 7.9 km/h 88 % 0 mm
19:54 5.8 °C 3.8 °C 1027.3 hPa North 11.1 km/h 7.1 km/h 87 % 0 mm
19:59 5.8 °C 3.7 °C 1027.3 hPa SSW 16.7 km/h 12.9 km/h 86 % 0 mm
20:04 5.8 °C 3.7 °C 1027.3 hPa North 13 km/h 9 km/h 86 % 0 mm
20:09 5.8 °C 3.4 °C 1027.3 hPa North 9.3 km/h 7.9 km/h 85 % 0 mm
20:14 5.7 °C 3.5 °C 1027.3 hPa SSW 14.8 km/h 9 km/h 86 % 0 mm
20:19 5.6 °C 3.4 °C 1027.3 hPa SSW 19.3 km/h 9.8 km/h 86 % 0 mm
20:24 5.7 °C 3.5 °C 1027.3 hPa North 7.4 km/h 9.2 km/h 86 % 0 mm
20:29 5.7 °C 3.5 °C 1027.3 hPa SSW 16.7 km/h 10 km/h 86 % 0 mm
20:34 5.7 °C 3.4 °C 1027.3 hPa SSW 9.3 km/h 9.5 km/h 85 % 0 mm
20:39 5.8 °C 3.3 °C 1027.3 hPa SW 14.8 km/h 7.4 km/h 84 % 0 mm
20:44 5.8 °C 3.3 °C 1027.3 hPa SW 18.5 km/h 14.8 km/h 84 % 0 mm
20:49 5.7 °C 3.1 °C 1027.3 hPa SW 19.3 km/h 11.1 km/h 83 % 0 mm
20:54 5.6 °C 2.9 °C 1027.3 hPa SW 14.8 km/h 7.6 km/h 83 % 0 mm
20:59 5.6 °C 3.1 °C 1027.3 hPa North 14.8 km/h 7.4 km/h 84 % 0 mm
21:04 5.4 °C 2.8 °C 1027.3 hPa SW 18.5 km/h 12.2 km/h 83 % 0 mm
21:09 5.4 °C 2.9 °C 1027.7 hPa North 19.3 km/h 9.3 km/h 84 % 0 mm
21:14 5.4 °C 2.9 °C 1027.7 hPa North 20.4 km/h 11.3 km/h 84 % 0 mm
21:19 5.5 °C 3 °C 1027.7 hPa SW 22.2 km/h 16.1 km/h 84 % 0 mm
21:24 5.6 °C 3.1 °C 1027.7 hPa North 17.7 km/h 10.6 km/h 84 % 0 mm
21:29 5.6 °C 3.1 °C 1027.7 hPa SW 16.7 km/h 9.8 km/h 84 % 0 mm
21:34 5.6 °C 3.1 °C 1027.7 hPa SW 14.5 km/h 9.5 km/h 84 % 0 mm
21:39 5.7 °C 3 °C 1027.3 hPa SW 18.5 km/h 12.1 km/h 83 % 0 mm
21:44 5.7 °C 3.1 °C 1027.3 hPa WSW 18.5 km/h 14 km/h 83 % 0 mm
21:49 5.7 °C 3.1 °C 1027.7 hPa SW 18.5 km/h 15.4 km/h 83 % 0 mm
21:54 5.7 °C 3.1 °C 1027.7 hPa SW 20.4 km/h 13.5 km/h 83 % 0 mm
21:59 5.7 °C 3.1 °C 1027.3 hPa SW 11.1 km/h 7.7 km/h 83 % 0 mm
22:04 5.6 °C 2.9 °C 1027.3 hPa SSW 20.4 km/h 8.9 km/h 83 % 0 mm
22:09 5.6 °C 2.9 °C 1027.3 hPa North 18.5 km/h 10.9 km/h 83 % 0 mm
22:14 5.6 °C 2.9 °C 1027.3 hPa WSW 20.9 km/h 12.9 km/h 83 % 0 mm
22:19 5.6 °C 2.9 °C 1027.3 hPa SW 18.5 km/h 9.2 km/h 83 % 0 mm
22:24 5.7 °C 2.8 °C 1027.3 hPa SW 27.8 km/h 15.3 km/h 82 % 0 mm
22:29 5.8 °C 2.8 °C 1027.3 hPa SW 18.5 km/h 7.2 km/h 81 % 0 mm
22:34 5.7 °C 2.6 °C 1027.3 hPa SW 14.5 km/h 10.9 km/h 80 % 0 mm
22:39 5.7 °C 2.7 °C 1027.3 hPa SW 25.7 km/h 13 km/h 81 % 0 mm
22:44 5.6 °C 2.6 °C 1027.3 hPa SW 16.7 km/h 8.7 km/h 81 % 0 mm
22:49 5.5 °C 2.5 °C 1027.3 hPa SW 19.3 km/h 15.8 km/h 81 % 0 mm
22:54 5.6 °C 2.6 °C 1027.3 hPa SW 19.3 km/h 13.2 km/h 81 % 0 mm
22:59 5.5 °C 2.5 °C 1027.3 hPa SW 9.7 km/h 7.9 km/h 81 % 0 mm
23:04 5.4 °C 2.4 °C 1027.3 hPa SW 16.7 km/h 10.6 km/h 81 % 0 mm
23:09 5.3 °C 2.3 °C 1027.3 hPa SW 18.5 km/h 10.6 km/h 81 % 0 mm
23:14 5.3 °C 2.4 °C 1027.3 hPa SW 16.7 km/h 7.6 km/h 82 % 0 mm
23:19 5.4 °C 2.6 °C 1027.3 hPa SW 13 km/h 12.1 km/h 82 % 0 mm
23:24 5.4 °C 2.4 °C 1027.3 hPa SW 13 km/h 10.3 km/h 81 % 0 mm
23:29 5.4 °C 2.4 °C 1027.3 hPa SW 9.3 km/h 6.6 km/h 81 % 0 mm
23:34 5.3 °C 2.3 °C 1027.3 hPa SW 13 km/h 9.5 km/h 81 % 0 mm
23:39 5.3 °C 2.2 °C 1027.3 hPa SW 13 km/h 7.9 km/h 80 % 0 mm
23:44 5.3 °C 2.2 °C 1027.3 hPa SW 11.1 km/h 6.6 km/h 80 % 0 mm
23:49 5.3 °C 2.2 °C 1027.3 hPa SSW 14.8 km/h 4.2 km/h 80 % 0 mm
23:54 5.3 °C 2.1 °C 1027.3 hPa SSW 14.5 km/h 7.2 km/h 80 % 0 mm
23:59 5.3 °C 2.1 °C 1027.3 hPa SSW 16.7 km/h 9 km/h 80 % 0 mm
Ararat Weather
Compliments of Weather Underground - 2.25 mb
Click here to send mail.


ABOUT

Live weather data from Ararat, Victoria, Australia, 3377
Data uploaded from Cumulus every 5 minutes to Weather Underground.
This site then downloads the raw data for formatting and display.
Metric and imperial data can be displayed. Graphs and historical data available.
Includes Sun and Moon times and rain image live from BOM.

Check out Ararat Weather on Facebook, Twitter and Google +

Help support ongoing costs by checking out the ads





Follow @AraratWeather